Time;durP1;ratioP1;P1;durP2;ratioP2;P2;SDS_P1;SDS_P2;PMS_P1;PMS_P2;Temp;Humidity;BMP_temperature;BMP_pressure;BME280_temperature;BME280_humidity;BME280_pressure;Samples;Min_cycle;Max_cycle;Signal;HPM_P1;HPM_P2
2020/12/15 00:01:59;;;;;;;3.95;0.43;;;;;;;3.55;100.00;98135.00;4862747;29;20055;-80
2020/12/15 00:05:03;;;;;;;0.47;0.47;;;;;;;3.57;100.00;98135.28;4861725;29;20116;-79
2020/12/15 00:08:06;;;;;;;0.30;0.30;;;;;;;3.58;100.00;98134.81;4863265;29;20051;-80
2020/12/15 00:55:15;;;;;;;0.20;0.20;;;;;;;3.01;100.00;98152.63;4879851;29;20136;-85
2020/12/15 00:58:18;;;;;;;0.77;0.73;;;;;;;2.95;100.00;98146.97;4880643;29;20820;-85
2020/12/15 01:01:21;;;;;;;0.30;0.30;;;;;;;2.92;100.00;98150.66;4869274;29;20081;-85
2020/12/15 01:04:24;;;;;;;0.20;0.15;;;;;;;2.91;100.00;98154.63;4879908;29;20060;-86
2020/12/15 01:07:27;;;;;;;0.55;0.40;;;;;;;2.83;100.00;98152.69;4880603;29;20048;-86
2020/12/15 01:10:30;;;;;;;1.38;0.40;;;;;;;2.81;100.00;98150.41;4869584;29;20059;-86
2020/12/15 01:13:33;;;;;;;0.63;0.30;;;;;;;2.73;100.00;98148.47;4880876;29;20134;-86
2020/12/15 01:16:36;;;;;;;0.35;0.35;;;;;;;2.70;100.00;98152.91;4868972;29;20108;-86
2020/12/15 01:19:39;;;;;;;1.30;0.30;;;;;;;2.66;100.00;98157.81;4880860;29;20417;-85
2020/12/15 01:22:41;;;;;;;4.47;0.93;;;;;;;2.72;100.00;98155.19;4868783;29;20185;-85
2020/12/15 01:25:44;;;;;;;0.32;0.32;;;;;;;2.84;100.00;98159.69;4868882;29;20149;-86
2020/12/15 01:28:47;;;;;;;0.80;0.32;;;;;;;2.96;100.00;98154.00;4868921;29;20119;-86
2020/12/15 01:31:51;;;;;;;3.60;1.13;;;;;;;2.93;100.00;98157.69;4868957;29;20052;-85
2020/12/15 01:34:54;;;;;;;20.08;1.00;;;;;;;2.90;100.00;98161.34;4880716;29;20052;-86
2020/12/15 01:37:56;;;;;;;0.90;0.35;;;;;;;2.89;100.00;98167.31;4880247;29;20052;-85
2020/12/15 01:40:59;;;;;;;0.10;0.10;;;;;;;2.84;100.00;98171.47;4868745;29;20077;-85
2020/12/15 01:44:04;;;;;;;6.97;0.88;;;;;;;2.91;100.00;98167.63;4880192;29;20073;-85
2020/12/15 01:47:07;;;;;;;12.38;1.95;;;;;;;2.97;100.00;98171.25;4868710;29;20056;-85
2020/12/15 01:50:10;;;;;;;0.10;0.10;;;;;;;3.02;100.00;98167.88;4880174;29;20056;-85
2020/12/15 01:53:14;;;;;;;0.30;0.15;;;;;;;3.05;100.00;98166.94;4880198;29;20069;-86
2020/12/15 01:56:17;;;;;;;3.85;1.75;;;;;;;2.88;100.00;98155.56;4868419;29;20059;-85
2020/12/15 01:59:22;;;;;;;0.30;0.30;;;;;;;2.73;100.00;98168.44;4868285;29;20096;-85
2020/12/15 02:02:25;;;;;;;0.20;0.20;;;;;;;2.56;100.00;98163.75;4868345;29;20048;-85
2020/12/15 02:05:28;;;;;;;5.47;0.63;;;;;;;2.48;100.00;98168.84;4868252;29;20085;-84
2020/12/15 02:08:31;;;;;;;0.30;0.30;;;;;;;2.32;100.00;98174.66;4868131;29;20060;-85
2020/12/15 02:11:34;;;;;;;0.20;0.20;;;;;;;2.20;100.00;98183.84;4879543;29;20501;-85
2020/12/15 02:14:37;;;;;;;0.55;0.30;;;;;;;2.14;100.00;98191.19;4867316;29;20056;-85
2020/12/15 02:17:40;;;;;;;0.10;0.10;;;;;;;2.04;100.00;98186.91;4879507;29;20112;-84
2020/12/15 02:20:43;;;;;;;0.47;0.47;;;;;;;2.08;100.00;98195.78;4877345;29;20056;-85
2020/12/15 02:23:46;;;;;;;0.10;0.10;;;;;;;2.10;100.00;98198.81;4879081;29;20055;-84
2020/12/15 02:26:49;;;;;;;1.30;0.70;;;;;;;2.08;100.00;98195.78;4867727;29;20051;-85
2020/12/15 02:29:52;;;;;;;0.20;0.20;;;;;;;2.07;100.00;98196.97;4879157;29;20132;-86
2020/12/15 02:32:54;;;;;;;0.57;0.52;;;;;;;2.14;100.00;98207.66;4867849;29;20108;-85
2020/12/15 02:35:58;;;;;;;0.10;0.10;;;;;;;2.18;100.00;98205.50;4866817;29;20079;-85
2020/12/15 02:39:10;;;;;;;0.20;0.20;;;;;;;2.25;100.00;98210.69;4866789;29;20141;-85
2020/12/15 02:42:13;;;;;;;0.10;0.10;;;;;;;2.29;100.00;98217.56;4878285;29;20512;-85
2020/12/15 02:45:16;;;;;;;2.72;1.10;;;;;;;2.32;100.00;98218.59;4866635;29;20104;-85
2020/12/15 02:48:19;;;;;;;0.20;0.20;;;;;;;2.32;100.00;98221.34;4877995;29;20048;-85
2020/12/15 02:51:23;;;;;;;2.45;0.45;;;;;;;2.26;100.00;98210.22;4878037;29;20059;-85
2020/12/15 02:54:26;;;;;;;0.10;0.10;;;;;;;2.22;100.00;98222.59;4878203;29;20116;-85
2020/12/15 02:57:29;;;;;;;0.20;0.20;;;;;;;2.16;100.00;98230.69;4878016;29;20531;-85
2020/12/15 03:00:32;;;;;;;0.20;0.20;;;;;;;2.12;100.00;98229.31;4866541;29;20048;-84
2020/12/15 03:03:35;;;;;;;0.30;0.15;;;;;;;2.10;100.00;98232.50;4866569;29;20064;-85
2020/12/15 03:06:38;;;;;;;0.10;0.10;;;;;;;2.03;100.00;98218.34;4878296;29;20777;-85
2020/12/15 03:09:41;;;;;;;0.20;0.20;;;;;;;1.96;100.00;98226.88;4878586;29;20061;-84
2020/12/15 03:12:44;;;;;;;0.17;0.17;;;;;;;1.93;100.00;98231.28;4878424;29;20051;-85
2020/12/15 03:15:47;;;;;;;0.20;0.20;;;;;;;1.91;100.00;98238.44;4878284;29;20101;-84
2020/12/15 03:18:50;;;;;;;0.20;0.20;;;;;;;1.86;100.00;98222.59;4878338;29;20067;-84
2020/12/15 03:21:53;;;;;;;0.15;0.15;;;;;;;1.89;100.00;98225.19;4866987;29;20060;-85
2020/12/15 03:24:56;;;;;;;0.10;0.10;;;;;;;1.92;100.00;98231.75;4878702;29;20070;-85
2020/12/15 03:27:58;;;;;;;0.20;0.20;;;;;;;1.92;100.00;98231.75;4884754;29;20056;-85
2020/12/15 03:31:02;;;;;;;0.65;0.65;;;;;;;1.90;100.00;98228.69;4873031;29;20123;-85
2020/12/15 03:34:05;;;;;;;0.38;0.38;;;;;;;1.93;100.00;98219.53;4873318;29;20056;-85
2020/12/15 03:37:08;;;;;;;0.52;0.35;;;;;;;2.04;100.00;98214.34;4884732;29;20506;-85
2020/12/15 03:40:11;;;;;;;1.45;0.30;;;;;;;2.08;100.00;98217.72;4884702;29;20088;-85
2020/12/15 03:43:14;;;;;;;0.85;0.47;;;;;;;2.08;100.00;98223.22;4884175;29;20074;-85
2020/12/15 03:46:16;;;;;;;0.30;0.20;;;;;;;2.13;100.00;98209.63;4872172;29;20080;-85
2020/12/15 03:49:20;;;;;;;4.13;0.82;;;;;;;2.11;100.00;98217.56;4884684;29;20073;-85
2020/12/15 03:52:23;;;;;;;0.20;0.20;;;;;;;2.25;100.00;98210.69;4873045;29;20120;-85
2020/12/15 03:55:25;;;;;;;0.77;0.55;;;;;;;2.46;100.00;98209.75;4884536;29;20128;-85
2020/12/15 03:58:28;;;;;;;0.10;0.10;;;;;;;2.42;100.00;98222.88;4873053;29;20060;-85
2020/12/15 04:01:31;;;;;;;2.40;0.40;;;;;;;2.38;100.00;98224.25;4872929;29;20095;-84
2020/12/15 04:04:34;;;;;;;0.45;0.45;;;;;;;2.45;100.00;98234.94;4884237;29;20079;-84
2020/12/15 04:07:37;;;;;;;0.20;0.20;;;;;;;2.50;100.00;98240.56;4872928;29;20096;-85
2020/12/15 04:10:39;;;;;;;2.03;0.70;;;;;;;2.50;100.00;98237.81;4872574;29;20098;-85
2020/12/15 04:13:42;;;;;;;0.10;0.10;;;;;;;2.42;100.00;98246.84;4872703;29;20060;-86
2020/12/15 04:16:45;;;;;;;2.22;1.00;;;;;;;2.37;100.00;98239.97;4872972;29;20052;-85
2020/12/15 04:19:48;;;;;;;0.52;0.52;;;;;;;2.39;100.00;98243.03;4884445;29;20097;-86
2020/12/15 04:22:51;;;;;;;4.38;0.40;;;;;;;2.43;100.00;98242.84;4872589;29;20069;-85
2020/12/15 04:25:57;;;;;;;0.52;0.45;;;;;;;2.43;100.00;98249.13;4884342;29;20516;-85
2020/12/15 04:29:01;;;;;;;0.20;0.20;;;;;;;2.45;100.00;98245.94;4872583;29;20493;-84
2020/12/15 04:32:03;;;;;;;0.20;0.20;;;;;;;2.34;100.00;98246.38;4873323;29;20413;-84
2020/12/15 04:35:06;;;;;;;2.30;0.47;;;;;;;2.24;100.00;98258.59;4872315;29;20132;-85
2020/12/15 04:38:11;;;;;;;0.73;0.35;;;;;;;2.14;100.00;98257.81;4869678;29;20048;-85
2020/12/15 04:41:15;;;;;;;0.28;0.28;;;;;;;2.00;100.00;98260.41;4869888;29;20108;-85
2020/12/15 04:44:18;;;;;;;0.52;0.52;;;;;;;1.97;100.00;98266.84;4869631;29;20524;-85
2020/12/15 04:47:34;;;;;;;0.30;0.30;;;;;;;1.94;100.00;98262.25;4869554;29;20104;-85
2020/12/15 04:50:38;;;;;;;10.95;0.93;;;;;;;2.06;100.00;98269.56;4869643;29;20116;-85
2020/12/15 04:53:48;;;;;;;0.20;0.20;;;;;;;2.18;100.00;98260.44;4869035;29;20442;-85
2020/12/15 04:56:59;;;;;;;0.20;0.20;;;;;;;2.25;100.00;98265.63;4880958;29;20109;-85
2020/12/15 05:00:05;;;;;;;0.20;0.20;;;;;;;2.25;100.00;98273.88;4869691;29;20124;-85
2020/12/15 05:03:08;;;;;;;0.15;0.15;;;;;;;2.37;100.00;98283.91;4869562;29;20172;-85
2020/12/15 05:06:15;;;;;;;0.25;0.17;;;;;;;2.52;100.00;98273.84;4869402;29;20048;-84
2020/12/15 05:09:27;;;;;;;5.28;2.90;;;;;;;2.64;100.00;98274.91;4880679;29;20060;-85
2020/12/15 05:12:30;;;;;;;1.05;0.22;;;;;;;2.75;100.00;98275.94;4880762;29;20109;-84
2020/12/15 05:15:33;;;;;;;0.20;0.10;;;;;;;2.82;100.00;98280.34;4869278;29;20047;-86
2020/12/15 05:18:36;;;;;;;0.52;0.52;;;;;;;2.65;100.00;98282.69;4869258;29;20606;-84
2020/12/15 05:21:39;;;;;;;0.20;0.20;;;;;;;2.49;100.00;98280.25;4869188;29;20108;-86
2020/12/15 05:24:49;;;;;;;0.30;0.30;;;;;;;2.36;100.00;98287.88;4868748;29;20067;-86
2020/12/15 05:27:53;;;;;;;30.60;1.15;;;;;;;2.25;100.00;98293.84;4880047;29;20466;-85
2020/12/15 05:30:59;;;;;;;0.40;0.40;;;;;;;2.22;100.00;98294.00;4868992;29;20084;-85
2020/12/15 05:34:03;;;;;;;2.70;0.68;;;;;;;2.11;100.00;98288.19;4869027;29;20155;-84
2020/12/15 05:37:06;;;;;;;1.00;0.88;;;;;;;2.00;100.00;98293.34;4868710;29;20136;-85
2020/12/15 05:40:09;;;;;;;0.20;0.20;;;;;;;1.94;100.00;98289.69;4880225;29;20135;-85
2020/12/15 05:43:12;;;;;;;0.52;0.50;;;;;;;1.92;100.00;98295.66;4880105;29;20105;-85
2020/12/15 05:46:19;;;;;;;0.20;0.20;;;;;;;1.92;100.00;98303.13;4868281;29;20510;-85
2020/12/15 05:49:27;;;;;;;0.80;0.73;;;;;;;1.95;100.00;98313.19;4868568;29;20052;-85
2020/12/15 05:52:30;;;;;;;0.20;0.20;;;;;;;1.92;100.00;98309.38;4868760;29;20068;-84
2020/12/15 05:55:33;;;;;;;0.57;0.20;;;;;;;1.86;100.00;98311.19;4868479;29;20052;-85
2020/12/15 05:58:38;;;;;;;0.57;0.50;;;;;;;1.82;100.00;98318.03;4868203;29;20087;-84
2020/12/15 06:01:41;;;;;;;0.20;0.20;;;;;;;1.76;100.00;98314.34;4879838;29;20557;-85
2020/12/15 06:04:44;;;;;;;0.20;0.20;;;;;;;1.78;100.00;98314.66;4868032;29;20084;-85
2020/12/15 06:07:47;;;;;;;0.20;0.20;;;;;;;1.74;100.00;98325.03;4868270;29;20064;-85
2020/12/15 06:10:52;;;;;;;0.45;0.45;;;;;;;1.75;100.00;98321.84;4879481;29;20075;-84
2020/12/15 06:13:55;;;;;;;0.20;0.20;;;;;;;1.76;100.00;98330.81;4868224;29;20112;-85
2020/12/15 06:16:59;;;;;;;3.75;0.43;;;;;;;1.79;100.00;98335.41;4868084;29;20053;-85
2020/12/15 06:20:02;;;;;;;0.38;0.38;;;;;;;1.83;100.00;98334.06;4868240;29;20116;-85
2020/12/15 06:23:11;;;;;;;5.82;0.95;;;;;;;1.83;100.00;98341.50;4867530;29;20060;-84
2020/12/15 06:26:23;;;;;;;0.63;0.45;;;;;;;1.88;100.00;98349.16;4879220;29;20077;-82
2020/12/15 06:29:37;;;;;;;0.10;0.10;;;;;;;1.91;100.00;98326.28;4878921;29;20060;-84
2020/12/15 06:32:40;;;;;;;4.47;1.10;;;;;;;1.94;100.00;98328.91;4879177;29;20080;-84
2020/12/15 06:35:44;;;;;;;0.90;0.43;;;;;;;1.97;100.00;98344.44;4878938;29;20136;-84
2020/12/15 06:38:47;;;;;;;0.65;0.65;;;;;;;1.92;100.00;98338.78;4867559;29;20060;-84
2020/12/15 06:41:57;;;;;;;0.50;0.50;;;;;;;1.88;100.00;98346.41;4878810;29;20438;-84
2020/12/15 06:45:07;;;;;;;0.20;0.20;;;;;;;1.80;100.00;98340.44;4867882;29;20056;-84
2020/12/15 06:48:13;;;;;;;2.80;0.80;;;;;;;1.82;100.00;98356.47;4867092;29;20420;-85
2020/12/15 06:51:26;;;;;;;3.00;0.30;;;;;;;1.83;100.00;98350.53;4878632;29;20056;-84
2020/12/15 06:54:33;;;;;;;0.52;0.30;;;;;;;1.83;100.00;98350.53;4859032;29;20458;-85
2020/12/15 06:57:38;;;;;;;0.20;0.20;;;;;;;1.87;100.00;98350.38;4859526;29;20144;-85
2020/12/15 07:00:42;;;;;;;1.15;0.68;;;;;;;1.89;100.00;98353.41;4858887;29;20170;-83
2020/12/15 07:03:45;;;;;;;0.10;0.10;;;;;;;2.05;100.00;98355.91;4860181;29;20117;-85
2020/12/15 07:06:57;;;;;;;0.73;0.73;;;;;;;2.14;100.00;98364.16;4859266;29;20141;-85
2020/12/15 07:10:00;;;;;;;6.38;2.47;;;;;;;2.17;100.00;98365.97;4859083;29;20072;-84
2020/12/15 07:13:04;;;;;;;0.43;0.43;;;;;;;2.20;100.00;98368.59;4860207;29;20052;-90
2020/12/15 07:16:19;;;;;;;1.23;1.13;;;;;;;2.24;100.00;98379.44;4860276;29;20061;-89
2020/12/15 07:19:23;;;;;;;0.52;0.52;;;;;;;2.36;100.00;98384.00;4859197;29;20517;-90
2020/12/15 07:22:26;;;;;;;0.20;0.20;;;;;;;2.35;100.00;98379.75;4860482;29;20144;-90
2020/12/15 07:25:29;;;;;;;0.20;0.20;;;;;;;2.29;100.00;98389.81;4860364;29;20586;-89
2020/12/15 07:28:33;;;;;;;4.57;0.50;;;;;;;2.21;100.00;98385.81;4860492;29;20056;-82
2020/12/15 07:31:36;;;;;;;0.35;0.35;;;;;;;2.13;100.00;98406.56;4859920;29;20087;-87
2020/12/15 07:34:39;;;;;;;0.10;0.10;;;;;;;2.03;100.00;98407.75;4860178;29;20056;-87
2020/12/15 07:37:42;;;;;;;18.63;0.65;;;;;;;1.98;100.00;98411.84;4858936;29;20048;-87
2020/12/15 07:40:45;;;;;;;0.65;0.65;;;;;;;1.96;100.00;98414.28;4865820;29;20063;-87
2020/12/15 07:43:57;;;;;;;0.20;0.20;;;;;;;1.93;100.00;98400.69;4864080;29;20141;-86
2020/12/15 07:47:00;;;;;;;15.93;0.82;;;;;;;1.92;100.00;98413.69;4865822;29;20056;-88
2020/12/15 07:50:03;;;;;;;0.13;0.13;;;;;;;1.88;100.00;98418.53;4869322;29;20075;-88
2020/12/15 07:53:07;;;;;;;0.35;0.30;;;;;;;1.89;100.00;98424.78;4868622;29;20414;-87
2020/12/15 07:56:12;;;;;;;0.10;0.10;;;;;;;1.90;100.00;98434.56;4849048;29;20048;-87
2020/12/15 07:59:16;;;;;;;0.20;0.15;;;;;;;1.91;100.00;98439.59;4849070;29;20052;-81
2020/12/15 08:02:18;;;;;;;14.13;1.30;;;;;;;1.98;100.00;98439.31;4860226;29;20052;-89
2020/12/15 08:05:24;;;;;;;0.50;0.50;;;;;;;2.13;100.00;98439.50;4876969;29;20048;-89
2020/12/15 08:08:29;;;;;;;0.20;0.20;;;;;;;2.21;100.00;98435.25;4885586;29;20059;-89
2020/12/15 08:11:33;;;;;;;3.13;0.63;;;;;;;2.25;100.00;98441.38;4886194;29;20105;-88
2020/12/15 08:14:39;;;;;;;0.30;0.20;;;;;;;2.30;100.00;98449.78;4889466;29;20054;-89
2020/12/15 08:17:45;;;;;;;0.20;0.20;;;;;;;2.32;100.00;98448.56;4889025;29;20096;-88
2020/12/15 08:20:57;;;;;;;0.63;0.63;;;;;;;2.35;100.00;98464.91;4889645;29;20059;-88
2020/12/15 08:24:05;;;;;;;0.35;0.35;;;;;;;2.49;100.00;98456.06;4889752;29;20136;-88
2020/12/15 08:27:11;;;;;;;0.98;0.45;;;;;;;2.56;100.00;98455.78;4888884;29;20128;-84
2020/12/15 08:30:21;;;;;;;0.10;0.10;;;;;;;2.51;100.00;98470.16;4888912;29;20112;-86
2020/12/15 08:33:27;;;;;;;0.70;0.30;;;;;;;2.49;100.00;98472.56;4888806;29;20557;-81
2020/12/15 08:36:30;;;;;;;0.20;0.20;;;;;;;2.41;100.00;98476.81;4879153;29;20196;-85
2020/12/15 08:39:36;;;;;;;1.17;0.35;;;;;;;2.42;100.00;98475.63;4879194;29;20421;-90
2020/12/15 08:42:42;;;;;;;0.10;0.10;;;;;;;2.45;100.00;98474.69;4876347;29;20056;-86
2020/12/15 08:45:45;;;;;;;0.73;0.30;;;;;;;2.51;100.00;98480.38;4889044;29;20052;-85
2020/12/15 08:48:49;;;;;;;0.45;0.35;;;;;;;2.57;100.00;98495.78;4877912;29;20139;-85
2020/12/15 08:51:53;;;;;;;2.75;0.57;;;;;;;2.60;100.00;98489.38;4862480;29;20057;-85
2020/12/15 08:54:55;;;;;;;0.10;0.10;;;;;;;2.62;100.00;98505.44;4850853;29;20141;-85
2020/12/15 08:58:05;;;;;;;0.20;0.20;;;;;;;2.67;100.00;98507.56;4850896;29;20158;-85
2020/12/15 09:01:08;;;;;;;1.35;0.55;;;;;;;2.75;100.00;98506.81;4851227;29;20060;-85
2020/12/15 09:04:12;;;;;;;0.20;0.20;;;;;;;2.81;100.00;98510.50;4850961;29;20061;-84
2020/12/15 09:07:19;;;;;;;5.03;0.35;;;;;;;2.85;100.00;98511.13;4862132;29;20068;-85
2020/12/15 09:10:22;;;;;;;5.18;0.50;;;;;;;2.96;100.00;98516.94;4853354;29;20081;-84
2020/12/15 09:13:25;;;;;;;0.10;0.10;;;;;;;3.15;100.00;98516.94;4873938;29;20051;-84
2020/12/15 09:16:28;;;;;;;0.28;0.10;;;;;;;3.31;100.00;98517.41;4883765;29;20052;-84
2020/12/15 09:19:40;;;;;;;1.70;0.40;;;;;;;3.48;100.00;98520.59;4898985;29;20052;-84
2020/12/15 09:22:43;;;;;;;1.75;0.32;;;;;;;3.59;100.00;98532.69;4898884;29;20169;-84
2020/12/15 09:25:46;;;;;;;1.10;0.57;;;;;;;3.62;100.00;98533.72;4887218;29;20051;-83
2020/12/15 09:28:50;;;;;;;2.63;0.25;;;;;;;3.61;100.00;98526.72;4886641;29;20100;-84
2020/12/15 09:31:54;;;;;;;0.20;0.10;;;;;;;3.57;100.00;98526.84;4886669;29;20049;-84
2020/12/15 09:34:57;;;;;;;6.15;0.98;;;;;;;3.54;100.00;98532.53;4886607;29;20091;-83
2020/12/15 09:38:00;;;;;;;0.13;0.13;;;;;;;3.51;100.00;98528.69;4878957;29;20068;-85
2020/12/15 09:41:03;;;;;;;0.15;0.15;;;;;;;3.45;100.00;98529.78;4879803;29;20056;-84
2020/12/15 09:44:05;;;;;;;0.20;0.20;;;;;;;3.37;100.00;98531.31;4879734;29;20092;-84
2020/12/15 09:47:08;;;;;;;0.30;0.30;;;;;;;3.29;100.00;98538.34;4868880;29;20060;-84
2020/12/15 09:50:12;;;;;;;0.10;0.10;;;;;;;3.25;100.00;98540.50;4879348;29;20083;-83
2020/12/15 09:53:17;;;;;;;0.30;0.25;;;;;;;3.29;100.00;98543.84;4879114;29;20486;-83
2020/12/15 09:56:21;;;;;;;0.10;0.08;;;;;;;3.30;100.00;98535.13;4867856;29;20056;-83
2020/12/15 09:59:25;;;;;;;0.10;0.10;;;;;;;3.31;100.00;98542.16;4867814;29;20100;-84
2020/12/15 10:02:28;;;;;;;0.40;0.32;;;;;;;3.33;100.00;98549.97;4867520;29;20147;-84
2020/12/15 10:05:31;;;;;;;0.73;0.30;;;;;;;3.51;100.00;98538.97;4867238;29;20410;-84
2020/12/15 10:08:34;;;;;;;0.25;0.10;;;;;;;3.63;100.00;98540.78;4879372;29;20416;-84
2020/12/15 10:11:42;;;;;;;1.80;0.60;;;;;;;3.69;100.00;98545.19;4880815;29;20136;-84
2020/12/15 10:14:53;;;;;;;0.10;0.10;;;;;;;3.72;100.00;98549.03;4868780;29;20541;-85
2020/12/15 10:17:56;;;;;;;0.40;0.25;;;;;;;3.74;100.00;98557.59;4867936;29;20056;-85
2020/12/15 10:21:01;;;;;;;0.43;0.30;;;;;;;3.86;100.00;98551.13;4867504;29;20116;-84
2020/12/15 10:24:04;;;;;;;7.97;0.75;;;;;;;3.89;100.00;98552.19;4867443;29;20060;-83
2020/12/15 10:27:08;;;;;;;0.38;0.20;;;;;;;3.88;100.00;98543.16;4867546;29;20124;-84
2020/12/15 10:30:11;;;;;;;0.10;0.10;;;;;;;3.90;100.00;98548.22;4867006;29;20084;-84
2020/12/15 10:33:14;;;;;;;0.90;0.85;;;;;;;4.03;100.00;98557.81;4867362;29;20080;-84
2020/12/15 10:36:17;;;;;;;4.93;1.15;;;;;;;4.15;100.00;98556.88;4877711;29;20069;-85
2020/12/15 10:39:20;;;;;;;0.77;0.32;;;;;;;4.15;100.00;98554.13;4879063;29;20063;-84
2020/12/15 10:42:23;;;;;;;6.93;0.47;;;;;;;4.26;100.00;98565.44;4866993;29;20060;-85
2020/12/15 10:45:26;;;;;;;0.20;0.20;;;;;;;4.29;100.00;98566.47;4878701;29;20098;-85
2020/12/15 10:48:29;;;;;;;1.67;0.93;;;;;;;4.29;100.00;98581.00;4879594;29;20105;-86
2020/12/15 10:51:32;;;;;;;21.10;5.18;;;;;;;4.33;100.00;98570.59;4868887;29;20126;-86
2020/12/15 10:54:35;;;;;;;40.72;11.18;;;;;;;4.35;100.00;98581.91;4861521;29;20105;-86
2020/12/15 10:57:38;;;;;;;3.35;1.90;;;;;;;4.38;100.00;98583.75;4862068;29;20105;-86
2020/12/15 11:00:41;;;;;;;0.63;0.63;;;;;;;4.52;100.00;98572.06;4861673;29;20060;-84
2020/12/15 11:03:47;;;;;;;1.33;0.40;;;;;;;4.66;100.00;98578.13;4861276;29;20106;-85
2020/12/15 11:06:50;;;;;;;0.50;0.50;;;;;;;4.70;100.00;98581.50;4860494;29;20586;-85
2020/12/15 11:09:56;;;;;;;2.40;1.17;;;;;;;4.69;100.00;98589.00;4859911;29;20080;-87
2020/12/15 11:13:01;;;;;;;11.88;0.77;;;;;;;4.69;100.00;98579.94;4859470;29;20122;-86
2020/12/15 11:16:05;;;;;;;8.32;0.60;;;;;;;4.70;100.00;98581.50;4859844;29;20092;-86
2020/12/15 11:19:11;;;;;;;0.52;0.47;;;;;;;4.74;100.00;98574.56;4859264;29;20137;-86
2020/12/15 11:22:17;;;;;;;0.20;0.20;;;;;;;4.74;100.00;98582.84;4858953;29;20072;-86
2020/12/15 11:25:20;;;;;;;13.80;1.30;;;;;;;4.77;100.00;98581.13;4859648;29;20185;-85
2020/12/15 11:28:29;;;;;;;0.32;0.13;;;;;;;4.90;100.00;98576.16;4859169;29;20136;-85
2020/12/15 11:31:38;;;;;;;0.75;0.52;;;;;;;5.03;100.00;98582.22;4858902;29;20062;-84
2020/12/15 11:34:48;;;;;;;0.10;0.00;;;;;;;5.15;100.00;98584.00;4858767;29;20066;-85
2020/12/15 11:37:52;;;;;;;5.93;1.20;;;;;;;5.19;100.00;98579.06;4859095;29;20053;-88
2020/12/15 11:40:55;;;;;;;8.35;0.43;;;;;;;5.25;100.00;98579.94;4859201;29;20114;-84
2020/12/15 11:43:58;;;;;;;10.95;0.75;;;;;;;5.39;100.00;98582.00;4859004;29;20105;-86
2020/12/15 11:47:01;;;;;;;5.65;0.88;;;;;;;5.55;100.00;98578.00;4860121;29;20048;-86
2020/12/15 11:50:08;;;;;;;3.58;0.38;;;;;;;5.63;100.00;98579.94;4862813;29;20198;-87
2020/12/15 11:53:11;;;;;;;8.85;0.63;;;;;;;5.66;100.00;98575.47;4864386;29;20052;-86
2020/12/15 11:56:18;;;;;;;0.40;0.20;;;;;;;5.59;100.00;98573.84;4870646;29;20207;-86
2020/12/15 11:59:21;;;;;;;5.57;0.82;;;;;;;5.61;100.00;98576.88;4881552;29;20128;-86
2020/12/15 12:02:24;;;;;;;0.77;0.57;;;;;;;5.61;100.00;98573.38;4869966;29;20055;-85
2020/12/15 12:05:27;;;;;;;1.85;0.25;;;;;;;5.53;100.00;98581.25;4870395;29;20104;-86
2020/12/15 12:08:31;;;;;;;10.43;0.95;;;;;;;5.53;100.00;98578.50;4870070;29;20084;-86
2020/12/15 12:11:37;;;;;;;9.32;0.57;;;;;;;5.55;100.00;98570.50;4889396;29;20082;-83
2020/12/15 12:14:56;;;;;;;1.27;0.80;;;;;;;5.58;100.00;98569.56;4898689;29;20071;-83
2020/12/15 12:17:59;;;;;;;4.78;0.63;;;;;;;5.57;100.00;98570.78;4892065;29;20180;-81
2020/12/15 12:21:03;;;;;;;0.73;0.60;;;;;;;5.59;100.00;98570.34;4887842;29;20151;-82
2020/12/15 12:24:06;;;;;;;0.55;0.20;;;;;;;5.64;100.00;98575.94;4888159;29;20596;-83
2020/12/15 12:27:09;;;;;;;1.15;0.63;;;;;;;5.64;100.00;98564.91;4905756;29;20068;-81
2020/12/15 12:30:13;;;;;;;7.40;1.13;;;;;;;5.65;100.00;98568.44;4889496;29;20091;-83
2020/12/15 12:33:16;;;;;;;2.25;0.70;;;;;;;5.75;100.00;98570.63;4888259;29;20413;-82
2020/12/15 12:36:21;;;;;;;0.17;0.17;;;;;;;5.73;100.00;98569.59;4886694;29;20100;-83
2020/12/15 12:39:32;;;;;;;0.10;0.10;;;;;;;5.75;100.00;98570.63;4887488;29;20051;-84
2020/12/15 12:42:39;;;;;;;0.15;0.15;;;;;;;5.73;100.00;98572.34;4886762;29;20060;-83
2020/12/15 12:45:42;;;;;;;1.15;0.50;;;;;;;5.68;100.00;98571.00;4887560;29;20528;-83
2020/12/15 12:48:45;;;;;;;0.10;0.10;;;;;;;5.71;100.00;98561.00;4898600;29;20059;-83
2020/12/15 12:51:48;;;;;;;6.85;0.80;;;;;;;5.80;100.00;98560.94;4898792;29;20083;-83
2020/12/15 12:54:51;;;;;;;0.45;0.45;;;;;;;5.83;100.00;98566.25;4897791;29;20075;-83
2020/12/15 12:57:55;;;;;;;0.30;0.30;;;;;;;5.86;100.00;98564.59;4887143;29;20162;-83
2020/12/15 13:01:00;;;;;;;0.20;0.20;;;;;;;5.92;100.00;98571.72;4888207;29;20062;-85
2020/12/15 13:04:07;;;;;;;0.25;0.17;;;;;;;5.93;100.00;98572.50;4886800;29;20121;-84
2020/12/15 13:07:13;;;;;;;0.65;0.65;;;;;;;5.97;100.00;98581.38;4884921;29;20055;-86
2020/12/15 13:10:17;;;;;;;0.10;0.10;;;;;;;6.00;100.00;98586.69;4896910;29;20116;-86
2020/12/15 13:13:20;;;;;;;0.10;0.10;;;;;;;5.96;100.00;98580.59;4887088;29;20528;-85
2020/12/15 13:16:24;;;;;;;0.22;0.15;;;;;;;5.96;100.00;98586.13;4898943;29;20531;-87
2020/12/15 13:19:27;;;;;;;1.02;0.20;;;;;;;5.96;100.00;98593.63;4898892;29;20051;-86
2020/12/15 13:22:31;;;;;;;0.10;0.10;;;;;;;5.91;100.00;98599.84;4887365;29;20067;-87
2020/12/15 13:25:34;;;;;;;0.63;0.30;;;;;;;5.90;100.00;98599.06;4887410;29;20060;-87
2020/12/15 13:28:37;;;;;;;0.45;0.40;;;;;;;5.91;100.00;98600.59;4898840;29;20067;-85
2020/12/15 13:31:44;;;;;;;1.58;0.38;;;;;;;5.90;100.00;98607.38;4895115;29;20553;-85
2020/12/15 13:34:48;;;;;;;7.97;0.55;;;;;;;5.95;100.00;98612.25;4868624;29;20052;-85
2020/12/15 13:37:50;;;;;;;0.40;0.20;;;;;;;5.98;100.00;98616.81;4867448;29;20120;-84
2020/12/15 13:40:53;;;;;;;0.38;0.38;;;;;;;6.05;100.00;98594.31;4879434;29;20051;-84
2020/12/15 13:43:56;;;;;;;0.20;0.20;;;;;;;6.08;100.00;98598.16;4879412;29;20162;-84
2020/12/15 13:47:00;;;;;;;1.13;0.40;;;;;;;6.01;100.00;98593.00;4867622;29;20063;-83
2020/12/15 13:50:04;;;;;;;0.13;0.13;;;;;;;6.00;100.00;98586.69;4879019;29;20176;-85
2020/12/15 13:53:06;;;;;;;6.95;0.70;;;;;;;6.00;100.00;98588.69;4878961;29;20060;-84
2020/12/15 13:56:09;;;;;;;0.43;0.35;;;;;;;5.98;100.00;98597.47;4878861;29;20109;-84
2020/12/15 13:59:12;;;;;;;1.23;0.32;;;;;;;5.91;100.00;98589.53;4878815;29;20177;-83
2020/12/15 14:02:15;;;;;;;13.40;1.05;;;;;;;5.85;100.00;98585.91;4863508;29;20124;-84
2020/12/15 14:05:18;;;;;;;4.82;0.90;;;;;;;5.81;100.00;98590.06;4883440;29;20121;-83
2020/12/15 14:08:21;;;;;;;0.65;0.52;;;;;;;5.82;100.00;98592.38;4871100;29;20056;-83
2020/12/15 14:11:24;;;;;;;0.10;0.10;;;;;;;5.87;100.00;98594.50;4881145;29;20052;-82
2020/12/15 14:14:27;;;;;;;1.00;0.10;;;;;;;5.83;100.00;98588.34;4881367;29;20096;-84
2020/12/15 14:17:30;;;;;;;0.60;0.45;;;;;;;5.86;100.00;98581.94;4878704;29;20055;-84
2020/12/15 14:20:33;;;;;;;2.55;0.20;;;;;;;5.84;100.00;98578.88;4879358;29;20112;-82
2020/12/15 14:23:36;;;;;;;0.00;0.00;;;;;;;5.79;100.00;98582.25;4877519;29;20120;-83
2020/12/15 14:26:38;;;;;;;0.85;0.35;;;;;;;5.84;100.00;98589.94;4871439;29;20048;-85
2020/12/15 14:29:41;;;;;;;0.47;0.35;;;;;;;5.88;100.00;98584.97;4877953;29;20069;-81
2020/12/15 14:32:44;;;;;;;0.45;0.22;;;;;;;5.84;100.00;98576.13;4866574;29;20108;-83
2020/12/15 14:35:47;;;;;;;0.17;0.17;;;;;;;5.87;100.00;98583.44;4859560;29;20051;-83
2020/12/15 14:38:50;;;;;;;1.45;0.70;;;;;;;5.78;100.00;98586.25;4863856;29;20446;-88
2020/12/15 14:41:53;;;;;;;1.92;0.28;;;;;;;5.72;100.00;98588.16;4866832;29;20068;-80
2020/12/15 14:44:56;;;;;;;3.05;0.20;;;;;;;5.66;100.00;98581.00;4877906;29;20528;-83
2020/12/15 14:47:59;;;;;;;0.43;0.15;;;;;;;5.54;100.00;98580.03;4878010;29;20074;-83
2020/12/15 14:51:03;;;;;;;0.20;0.20;;;;;;;5.44;100.00;98592.38;4877957;29;20052;-84
2020/12/15 14:54:07;;;;;;;1.25;0.38;;;;;;;5.39;100.00;98601.31;4877504;29;20064;-82
2020/12/15 14:57:10;;;;;;;8.60;1.48;;;;;;;5.47;100.00;98608.00;4877615;29;20052;-82
2020/12/15 15:00:13;;;;;;;0.10;0.10;;;;;;;5.50;100.00;98609.78;4878228;29;20073;-84
2020/12/15 15:03:16;;;;;;;1.75;0.28;;;;;;;5.52;100.00;98612.09;4878083;29;20048;-83
2020/12/15 15:06:19;;;;;;;9.00;0.77;;;;;;;5.59;100.00;98612.50;4880246;29;20056;-83
2020/12/15 15:09:21;;;;;;;2.95;0.65;;;;;;;5.59;100.00;98611.75;4875759;29;20105;-82
2020/12/15 15:12:24;;;;;;;0.10;0.10;;;;;;;5.51;100.00;98619.63;4878628;29;20087;-84